Time;durP1;ratioP1;P1;durP2;ratioP2;P2;SDS_P1;SDS_P2;PMS_P1;PMS_P2;Temp;Humidity;BMP_temperature;BMP_pressure;BME280_temperature;BME280_humidity;BME280_pressure;Samples;Min_cycle;Max_cycle;Signal;HPM_P1;HPM_P2
2021/04/14 00:00:30;;;;;;;6.63;5.10;;;4.40;99.90;;;;;;5083322;28;20208;-74
2021/04/14 00:02:57;;;;;;;6.43;5.30;;;4.30;99.90;;;;;;5082476;28;20213;-75
2021/04/14 00:05:26;;;;;;;7.03;5.87;;;4.30;99.90;;;;;;5083243;27;20209;-76
2021/04/14 00:07:52;;;;;;;8.67;5.80;;;4.30;99.90;;;;;;5091794;28;20200;-75
2021/04/14 00:10:21;;;;;;;10.93;7.60;;;4.30;99.90;;;;;;5105631;28;20203;-80
2021/04/14 00:12:48;;;;;;;10.07;7.30;;;4.30;99.90;;;;;;5107141;28;20226;-81
2021/04/14 00:15:17;;;;;;;11.40;8.37;;;4.30;99.90;;;;;;5108250;28;20207;-82
2021/04/14 00:17:45;;;;;;;12.37;8.90;;;4.30;99.90;;;;;;5100771;28;20236;-83
2021/04/14 00:20:13;;;;;;;11.37;8.53;;;4.30;99.90;;;;;;5087656;28;20203;-82
2021/04/14 00:22:39;;;;;;;10.67;7.87;;;4.20;99.90;;;;;;5087088;28;20781;-79
2021/04/14 00:25:07;;;;;;;9.77;7.50;;;4.20;99.90;;;;;;5103045;28;20234;-80
2021/04/14 00:27:37;;;;;;;12.37;8.03;;;4.20;99.90;;;;;;5103970;28;20202;-74
2021/04/14 00:30:05;;;;;;;11.50;8.33;;;4.20;99.90;;;;;;5102563;28;20203;-77
2021/04/14 00:32:32;;;;;;;13.50;8.40;;;4.20;99.90;;;;;;5102409;28;20219;-75
2021/04/14 00:34:59;;;;;;;11.47;7.47;;;4.10;99.90;;;;;;5102245;28;20223;-76
2021/04/14 00:37:25;;;;;;;11.37;7.50;;;4.10;99.90;;;;;;5102602;28;20273;-76
2021/04/14 00:39:52;;;;;;;11.47;9.00;;;4.10;99.90;;;;;;5105523;28;20203;-78
2021/04/14 00:42:18;;;;;;;11.17;7.73;;;4.10;99.90;;;;;;5102419;28;20217;-76
2021/04/14 00:44:44;;;;;;;9.73;7.67;;;4.00;99.90;;;;;;5085004;28;20284;-76
2021/04/14 00:47:10;;;;;;;9.77;7.60;;;4.00;99.90;;;;;;5094775;28;20211;-77
2021/04/14 00:49:37;;;;;;;11.17;8.77;;;4.00;99.90;;;;;;5105714;28;20200;-80
2021/04/14 00:52:05;;;;;;;11.37;8.70;;;4.00;99.90;;;;;;5105074;28;20219;-79
2021/04/14 00:54:31;;;;;;;13.20;8.83;;;4.00;99.90;;;;;;5104483;28;20211;-81
2021/04/14 00:56:57;;;;;;;11.53;8.57;;;4.00;99.90;;;;;;5105284;28;20208;-82
2021/04/14 00:59:23;;;;;;;11.30;9.17;;;3.90;99.90;;;;;;5106426;28;20214;-79
2021/04/14 01:01:50;;;;;;;12.40;9.13;;;3.90;99.90;;;;;;5096422;28;20292;-81
2021/04/14 01:04:16;;;;;;;13.60;9.67;;;3.80;99.90;;;;;;5085533;28;20994;-78
2021/04/14 01:06:44;;;;;;;10.57;7.93;;;3.80;99.90;;;;;;5087791;28;20627;-78
2021/04/14 01:09:11;;;;;;;11.30;8.70;;;3.80;99.90;;;;;;5110385;28;20199;-81
2021/04/14 01:11:38;;;;;;;14.90;9.60;;;3.80;99.90;;;;;;5108849;28;20220;-78
2021/04/14 01:14:04;;;;;;;14.23;9.63;;;3.80;99.90;;;;;;5110932;28;20207;-81
2021/04/14 01:16:30;;;;;;;13.53;9.27;;;3.70;99.90;;;;;;5099841;28;20205;-82
2021/04/14 01:18:57;;;;;;;15.97;10.13;;;3.70;99.90;;;;;;5086403;28;20917;-81
2021/04/14 01:21:25;;;;;;;15.03;10.30;;;3.70;99.90;;;;;;5086310;28;20838;-81
2021/04/14 01:23:52;;;;;;;11.97;9.47;;;3.70;99.90;;;;;;5086185;28;20197;-81
2021/04/14 01:26:18;;;;;;;12.53;8.33;;;3.70;99.90;;;;;;5088362;28;20214;-79
2021/04/14 01:28:47;;;;;;;13.70;9.90;;;3.70;99.90;;;;;;5094341;28;20210;-79
2021/04/14 01:31:17;;;;;;;13.13;8.67;;;3.70;99.90;;;;;;5108649;28;20315;-82
2021/04/14 01:33:43;;;;;;;17.97;10.87;;;3.70;99.90;;;;;;5107983;28;20220;-81
2021/04/14 01:36:10;;;;;;;18.57;11.50;;;3.70;99.90;;;;;;5097697;28;20522;-82
2021/04/14 01:38:38;;;;;;;16.70;11.40;;;3.80;99.90;;;;;;5087588;28;20571;-82
2021/04/14 01:41:07;;;;;;;18.60;12.17;;;3.80;99.90;;;;;;5087580;28;20193;-79
2021/04/14 01:43:34;;;;;;;15.87;11.00;;;3.80;99.90;;;;;;5085663;28;20212;-77
2021/04/14 01:46:01;;;;;;;15.80;11.20;;;3.70;99.90;;;;;;5084744;28;20192;-79
2021/04/14 01:48:27;;;;;;;18.90;13.00;;;3.70;99.90;;;;;;5085331;28;20204;-76
2021/04/14 01:50:53;;;;;;;20.23;13.37;;;3.70;99.90;;;;;;5085399;28;20600;-75
2021/04/14 01:53:21;;;;;;;16.37;12.00;;;3.70;99.90;;;;;;5085207;28;20205;-76
2021/04/14 01:55:50;;;;;;;16.63;12.03;;;3.70;99.90;;;;;;5085769;28;20215;-78
2021/04/14 01:58:17;;;;;;;19.10;12.60;;;3.70;99.90;;;;;;5084168;28;20200;-77
2021/04/14 02:00:51;;;;;;;16.80;11.40;;;3.70;99.90;;;;;;5084939;28;20208;-77
2021/04/14 02:03:18;;;;;;;13.30;10.20;;;3.70;99.90;;;;;;5085278;28;20212;-75
2021/04/14 02:05:45;;;;;;;14.43;9.77;;;3.60;99.90;;;;;;5085830;28;20205;-82
2021/04/14 02:08:11;;;;;;;15.33;11.00;;;3.60;99.90;;;;;;5103101;28;20612;-79
2021/04/14 02:10:38;;;;;;;13.27;9.53;;;3.60;99.90;;;;;;5110813;28;20196;-83
2021/04/14 02:13:10;;;;;;;14.90;10.80;;;3.60;99.90;;;;;;5111008;28;20196;-86
2021/04/14 02:15:36;;;;;;;16.27;11.13;;;3.60;99.90;;;;;;5109927;28;20207;-82
2021/04/14 02:18:04;;;;;;;13.40;9.83;;;3.60;99.90;;;;;;5109752;28;20242;-76
2021/04/14 02:20:31;;;;;;;12.70;9.00;;;3.50;99.90;;;;;;5089818;28;20754;-75
2021/04/14 02:22:58;;;;;;;14.60;10.50;;;3.50;99.90;;;;;;5095876;28;20291;-82
2021/04/14 02:25:25;;;;;;;13.07;10.23;;;3.50;99.90;;;;;;5109617;28;20206;-83
2021/04/14 02:27:52;;;;;;;13.37;10.80;;;3.50;99.90;;;;;;5101742;28;20266;-83
2021/04/14 02:30:24;;;;;;;13.97;10.03;;;3.40;99.90;;;;;;5088198;28;20204;-83
2021/04/14 02:32:51;;;;;;;14.60;10.80;;;3.40;99.90;;;;;;5088534;28;20616;-82
2021/04/14 02:35:17;;;;;;;15.90;11.13;;;3.40;99.90;;;;;;5087700;28;20224;-82
2021/04/14 02:37:43;;;;;;;12.77;9.30;;;3.30;99.90;;;;;;5087816;27;20208;-78
2021/04/14 02:40:11;;;;;;;14.77;9.97;;;3.30;99.90;;;;;;5088573;28;20211;-76
2021/04/14 02:42:40;;;;;;;11.97;9.17;;;3.30;99.90;;;;;;5084129;27;20197;-76
2021/04/14 02:45:08;;;;;;;16.40;10.87;;;3.20;99.90;;;;;;5084644;28;20209;-76
2021/04/14 02:47:35;;;;;;;14.40;8.93;;;3.20;99.90;;;;;;5084668;28;20497;-74
2021/04/14 02:50:01;;;;;;;12.40;8.83;;;3.20;99.90;;;;;;5083774;28;20200;-74
2021/04/14 02:52:27;;;;;;;11.77;8.83;;;3.20;99.90;;;;;;5084449;28;20225;-76
2021/04/14 02:54:54;;;;;;;11.90;8.93;;;3.20;99.90;;;;;;5084436;28;20913;-75
2021/04/14 02:57:20;;;;;;;12.63;8.53;;;3.20;99.90;;;;;;5083645;28;20201;-76
2021/04/14 02:59:46;;;;;;;14.00;10.40;;;3.20;99.90;;;;;;5084022;28;20208;-76
2021/04/14 03:02:12;;;;;;;15.57;11.17;;;3.20;99.90;;;;;;5085288;27;20208;-77
2021/04/14 03:04:40;;;;;;;14.70;11.40;;;3.10;99.90;;;;;;5083731;28;20323;-76
2021/04/14 03:07:06;;;;;;;15.33;10.97;;;3.10;99.90;;;;;;5086377;28;20204;-75
2021/04/14 03:09:33;;;;;;;16.63;11.43;;;3.10;99.90;;;;;;5104362;28;20570;-76
2021/04/14 03:11:59;;;;;;;15.43;10.87;;;3.10;99.90;;;;;;5104535;28;20219;-76
2021/04/14 03:14:25;;;;;;;14.40;10.57;;;3.00;99.90;;;;;;5091659;28;20209;-75
2021/04/14 03:16:52;;;;;;;15.70;11.80;;;3.00;99.90;;;;;;5084290;28;20205;-80
2021/04/14 03:19:18;;;;;;;14.27;10.27;;;3.00;99.90;;;;;;5083171;28;20244;-75
2021/04/14 03:21:45;;;;;;;16.63;10.67;;;3.00;99.90;;;;;;5083334;28;20200;-74
2021/04/14 03:24:11;;;;;;;14.40;10.40;;;3.00;99.90;;;;;;5084382;28;20204;-76
2021/04/14 03:26:38;;;;;;;14.73;10.87;;;3.00;99.90;;;;;;5082839;28;20196;-75
2021/04/14 03:29:04;;;;;;;16.47;10.67;;;2.90;99.90;;;;;;5088583;28;20205;-77
2021/04/14 03:31:32;;;;;;;13.33;10.07;;;2.90;99.90;;;;;;5082925;28;20228;-74
2021/04/14 03:33:59;;;;;;;15.90;10.70;;;2.90;99.90;;;;;;5082930;28;20224;-77
2021/04/14 03:36:25;;;;;;;14.27;10.83;;;2.90;99.90;;;;;;5083375;28;20197;-75
2021/04/14 03:38:52;;;;;;;15.67;11.00;;;2.90;99.90;;;;;;5082201;28;20219;-76
2021/04/14 03:41:18;;;;;;;14.97;10.70;;;2.80;99.90;;;;;;5083021;28;20193;-78
2021/04/14 03:43:46;;;;;;;14.03;10.40;;;2.90;99.90;;;;;;5083088;28;20216;-76
2021/04/14 03:46:13;;;;;;;18.40;11.90;;;2.90;99.90;;;;;;5083350;28;20342;-76
2021/04/14 03:48:40;;;;;;;15.33;11.07;;;2.80;99.90;;;;;;5083365;28;20196;-76
2021/04/14 03:51:06;;;;;;;15.40;11.37;;;2.80;99.90;;;;;;5083238;28;20644;-80
2021/04/14 03:53:35;;;;;;;14.53;10.80;;;2.80;99.90;;;;;;5083235;28;20516;-77
2021/04/14 03:56:05;;;;;;;15.07;10.77;;;2.80;99.90;;;;;;5084330;28;20257;-79
2021/04/14 03:58:33;;;;;;;14.63;10.73;;;2.80;99.90;;;;;;5102095;28;20215;-83
2021/04/14 04:01:00;;;;;;;14.10;10.53;;;2.70;99.90;;;;;;5102783;28;20585;-79
2021/04/14 04:03:27;;;;;;;13.20;10.30;;;2.70;99.90;;;;;;5084573;28;20204;-79
2021/04/14 04:05:54;;;;;;;16.83;11.77;;;2.70;99.90;;;;;;5086922;28;20291;-80
2021/04/14 04:08:21;;;;;;;16.63;11.33;;;2.70;99.90;;;;;;5088269;28;20200;-83
2021/04/14 04:10:48;;;;;;;17.63;11.50;;;2.70;99.90;;;;;;5088560;28;20264;-81
2021/04/14 04:13:16;;;;;;;17.07;12.17;;;2.70;99.90;;;;;;5088138;28;20220;-83
2021/04/14 04:15:43;;;;;;;16.00;11.07;;;2.70;99.90;;;;;;5086998;27;20209;-82
2021/04/14 04:18:10;;;;;;;15.67;11.63;;;2.70;99.90;;;;;;5088077;28;20247;-84
2021/04/14 04:20:37;;;;;;;16.27;11.13;;;2.60;99.90;;;;;;5087511;28;20577;-83
2021/04/14 04:23:04;;;;;;;15.83;11.07;;;2.60;99.90;;;;;;5086929;28;20192;-84
2021/04/14 04:25:32;;;;;;;18.47;12.57;;;2.60;99.90;;;;;;5107457;27;20622;-85
2021/04/14 04:27:59;;;;;;;16.80;11.90;;;2.60;99.90;;;;;;5106755;28;20200;-83
2021/04/14 04:30:27;;;;;;;17.67;13.10;;;2.60;99.90;;;;;;5094608;28;20973;-80
2021/04/14 04:32:54;;;;;;;22.20;15.77;;;2.60;99.90;;;;;;5087185;28;20228;-76
2021/04/14 04:35:21;;;;;;;27.07;16.23;;;2.60;99.90;;;;;;5086110;28;20235;-76
2021/04/14 04:37:48;;;;;;;22.87;15.10;;;2.60;99.90;;;;;;5087495;28;20204;-84
2021/04/14 04:40:15;;;;;;;22.73;15.13;;;2.60;99.90;;;;;;5086296;28;20200;-77
2021/04/14 04:42:41;;;;;;;21.10;15.10;;;2.50;99.90;;;;;;5086117;28;20253;-84
2021/04/14 04:45:10;;;;;;;23.50;15.83;;;2.50;99.90;;;;;;5085865;28;20211;-84
2021/04/14 04:47:37;;;;;;;21.43;15.23;;;2.50;99.90;;;;;;5086242;28;20199;-84
2021/04/14 04:50:04;;;;;;;19.90;14.03;;;2.60;99.90;;;;;;5084996;28;20200;-81
2021/04/14 04:52:31;;;;;;;22.27;14.67;;;2.50;99.90;;;;;;5087173;28;20238;-83
2021/04/14 04:54:57;;;;;;;17.87;13.20;;;2.60;99.90;;;;;;5085467;28;20209;-82
2021/04/14 04:57:23;;;;;;;18.60;13.60;;;2.60;99.90;;;;;;5087221;28;20876;-82
2021/04/14 04:59:50;;;;;;;20.73;14.93;;;2.60;99.90;;;;;;5086853;28;20295;-79
2021/04/14 05:02:16;;;;;;;24.17;16.50;;;2.60;99.90;;;;;;5086601;28;20201;-83
2021/04/14 05:04:43;;;;;;;23.20;16.03;;;2.60;99.90;;;;;;5104437;28;20204;-84
2021/04/14 05:07:09;;;;;;;21.97;15.17;;;2.60;99.90;;;;;;5106336;28;20200;-75
2021/04/14 05:09:36;;;;;;;22.60;16.20;;;2.60;99.90;;;;;;5105772;28;20200;-81
2021/04/14 05:12:03;;;;;;;22.17;15.27;;;2.60;99.90;;;;;;5098629;28;20227;-77
2021/04/14 05:14:29;;;;;;;22.87;15.60;;;2.60;99.90;;;;;;5082611;28;20207;-81
2021/04/14 05:16:55;;;;;;;23.90;15.13;;;2.70;99.90;;;;;;5083672;28;20558;-74
2021/04/14 05:19:21;;;;;;;18.97;13.97;;;2.70;99.90;;;;;;5083590;28;20268;-75
2021/04/14 05:21:49;;;;;;;21.03;14.37;;;2.70;99.90;;;;;;5082150;28;20193;-77
2021/04/14 05:24:15;;;;;;;20.83;13.70;;;2.70;99.90;;;;;;5081243;28;20197;-75
2021/04/14 05:26:41;;;;;;;21.87;13.90;;;2.70;99.90;;;;;;5081513;28;20209;-82
2021/04/14 05:29:08;;;;;;;21.80;13.27;;;2.70;99.90;;;;;;5082800;28;20208;-74
2021/04/14 05:31:38;;;;;;;21.37;14.10;;;2.70;99.90;;;;;;5081737;28;20224;-76
2021/04/14 05:34:05;;;;;;;21.97;14.80;;;2.80;99.90;;;;;;5066202;28;20236;-76
2021/04/14 05:36:32;;;;;;;21.57;15.03;;;2.80;99.90;;;;;;5062997;28;20262;-77
2021/04/14 05:38:59;;;;;;;23.13;14.97;;;2.90;99.90;;;;;;5062375;28;20361;-77
2021/04/14 05:41:25;;;;;;;20.27;14.13;;;2.90;99.90;;;;;;5062111;28;20190;-77
2021/04/14 05:43:52;;;;;;;22.70;15.13;;;3.00;99.90;;;;;;5062380;28;20194;-78
2021/04/14 05:46:20;;;;;;;23.77;14.93;;;3.10;99.90;;;;;;5061423;28;20198;-76
2021/04/14 05:48:49;;;;;;;22.50;13.97;;;3.20;99.90;;;;;;5062784;28;20205;-77
2021/04/14 05:51:21;;;;;;;19.77;14.30;;;3.20;99.90;;;;;;5062759;28;20205;-79
2021/04/14 05:53:49;;;;;;;22.20;16.30;;;3.40;99.90;;;;;;5064150;28;20213;-77
2021/04/14 05:56:17;;;;;;;21.97;14.60;;;3.50;99.90;;;;;;5067894;28;20208;-74
2021/04/14 05:58:43;;;;;;;29.90;16.53;;;3.60;99.90;;;;;;5068182;28;20205;-82
2021/04/14 06:01:12;;;;;;;20.57;15.20;;;3.70;99.90;;;;;;5069465;28;20284;-77
2021/04/14 06:03:39;;;;;;;22.60;15.37;;;3.80;99.90;;;;;;5083080;28;20215;-75
2021/04/14 06:06:05;;;;;;;20.40;15.20;;;4.00;99.90;;;;;;5089636;28;20188;-79
2021/04/14 06:08:32;;;;;;;19.30;13.37;;;4.10;99.90;;;;;;5089084;28;20197;-83
2021/04/14 06:10:59;;;;;;;22.83;13.40;;;4.20;99.90;;;;;;5075746;28;20232;-83
2021/04/14 06:13:27;;;;;;;18.70;13.40;;;4.30;99.90;;;;;;5064448;28;20371;-75
2021/04/14 06:15:54;;;;;;;15.33;9.50;;;4.40;99.90;;;;;;5065257;28;20355;-75
2021/04/14 06:18:20;;;;;;;10.37;7.47;;;4.50;99.90;;;;;;5073091;28;20237;-76
2021/04/14 06:20:46;;;;;;;12.30;7.07;;;4.60;99.90;;;;;;5084941;28;20208;-78
2021/04/14 06:23:17;;;;;;;10.47;7.70;;;4.80;99.90;;;;;;5085510;28;20205;-76
2021/04/14 06:25:55;;;;;;;12.27;7.20;;;4.90;99.90;;;;;;5086330;28;20177;-76
2021/04/14 06:28:21;;;;;;;10.57;6.70;;;5.00;99.90;;;;;;5088187;28;20218;-75
2021/04/14 06:30:49;;;;;;;11.37;6.70;;;5.10;99.90;;;;;;5099470;27;20212;-76
2021/04/14 06:33:16;;;;;;;10.57;6.30;;;5.10;99.90;;;;;;5085121;28;20620;-76
2021/04/14 06:35:43;;;;;;;11.43;6.60;;;5.20;99.90;;;;;;5083468;28;20204;-76
2021/04/14 06:38:10;;;;;;;12.00;7.57;;;5.20;99.90;;;;;;5084498;28;20299;-82
2021/04/14 06:40:53;;;;;;;11.07;7.20;;;5.20;99.90;;;;;;5084305;28;20586;-77
2021/04/14 06:43:35;;;;;;;11.30;6.40;;;5.30;99.90;;;;;;5087426;28;20201;-82
2021/04/14 06:46:07;;;;;;;7.30;5.37;;;5.40;99.90;;;;;;5085870;28;20285;-78
2021/04/14 06:48:47;;;;;;;10.60;5.30;;;5.40;99.90;;;;;;5086139;28;20193;-84
2021/04/14 06:51:23;;;;;;;8.83;4.70;;;5.40;99.90;;;;;;5086707;28;20210;-77
2021/04/14 06:54:03;;;;;;;13.53;6.20;;;5.50;99.90;;;;;;5084568;28;20192;-78
2021/04/14 06:56:32;;;;;;;8.13;3.93;;;5.50;99.90;;;;;;5085002;28;20740;-77
2021/04/14 06:59:02;;;;;;;8.23;3.73;;;5.60;99.90;;;;;;5085040;28;20200;-79
2021/04/14 07:01:35;;;;;;;6.47;3.57;;;5.70;99.90;;;;;;5085200;28;20189;-77
2021/04/14 07:04:07;;;;;;;4.87;2.67;;;5.80;99.90;;;;;;5084327;28;20220;-76
2021/04/14 07:06:36;;;;;;;6.77;3.27;;;5.90;99.90;;;;;;5084860;27;20196;-78
2021/04/14 07:09:09;;;;;;;6.37;2.77;;;6.00;99.90;;;;;;5101908;28;20207;-77
2021/04/14 07:11:36;;;;;;;3.97;2.60;;;6.10;99.90;;;;;;5103529;28;20216;-85
2021/04/14 07:14:03;;;;;;;7.27;2.57;;;6.20;99.90;;;;;;5090233;28;20203;-84
2021/04/14 07:16:53;;;;;;;4.73;2.63;;;6.30;99.90;;;;;;5087734;28;20205;-85
2021/04/14 07:23:23;;;;;;;4.57;1.50;;;6.70;99.90;;;;;;5087317;28;20307;-81
2021/04/14 07:25:55;;;;;;;5.47;1.60;;;7.00;99.90;;;;;;5087534;28;20218;-81
2021/04/14 07:28:41;;;;;;;3.17;1.30;;;7.30;99.90;;;;;;5087362;28;20201;-84
2021/04/14 07:31:12;;;;;;;2.63;1.40;;;7.60;99.90;;;;;;5087237;28;20196;-83
2021/04/14 07:33:51;;;;;;;2.80;1.07;;;7.90;99.90;;;;;;5086882;28;20236;-81
2021/04/14 07:36:24;;;;;;;8.27;1.37;;;8.10;99.90;;;;;;5087663;28;20192;-82
2021/04/14 07:39:01;;;;;;;2.97;1.03;;;8.20;99.90;;;;;;5082652;28;20884;-83
2021/04/14 07:41:37;;;;;;;3.77;1.10;;;8.30;99.90;;;;;;5084338;28;20212;-79
2021/04/14 07:44:08;;;;;;;4.07;2.20;;;8.50;99.90;;;;;;5084021;28;20253;-81
2021/04/14 07:46:37;;;;;;;3.37;1.27;;;8.70;99.90;;;;;;5082418;28;20262;-79
2021/04/14 07:49:06;;;;;;;3.47;1.40;;;8.80;99.90;;;;;;5083339;28;20287;-81
2021/04/14 07:51:32;;;;;;;2.50;1.30;;;9.10;99.90;;;;;;5081273;28;20223;-81
2021/04/14 07:54:03;;;;;;;4.83;1.47;;;9.30;99.90;;;;;;5082525;28;20504;-79
2021/04/14 07:56:40;;;;;;;3.03;1.17;;;9.40;99.90;;;;;;5082876;28;20988;-77
2021/04/14 07:59:09;;;;;;;3.70;1.17;;;9.30;99.90;;;;;;5083159;28;20193;-78
2021/04/14 08:01:37;;;;;;;8.30;2.17;;;9.20;99.90;;;;;;5102937;28;20203;-77
2021/04/14 08:04:21;;;;;;;3.00;1.17;;;9.00;99.90;;;;;;5101533;28;20241;-79
2021/04/14 08:06:47;;;;;;;3.27;1.50;;;9.10;99.90;;;;;;5080299;28;20270;-78
2021/04/14 08:09:17;;;;;;;4.10;1.20;;;9.20;99.90;;;;;;5083271;28;20209;-78
2021/04/14 08:11:44;;;;;;;4.53;1.00;;;9.50;99.90;;;;;;5082414;28;20319;-78
2021/04/14 08:14:14;;;;;;;2.43;1.00;;;9.80;99.90;;;;;;5082969;28;20205;-77
2021/04/14 08:16:43;;;;;;;3.17;1.03;;;9.80;99.90;;;;;;5082675;28;20379;-77
2021/04/14 08:19:19;;;;;;;0.80;0.70;;;9.80;99.90;;;;;;5081606;28;20309;-77
2021/04/14 08:21:56;;;;;;;2.80;0.90;;;9.50;99.90;;;;;;5082638;28;20228;-79
2021/04/14 08:24:29;;;;;;;1.30;0.77;;;9.60;99.90;;;;;;5082336;28;20307;-79
2021/04/14 08:26:59;;;;;;;2.23;0.70;;;9.70;99.90;;;;;;5082000;28;20200;-79
2021/04/14 08:29:25;;;;;;;4.17;1.00;;;9.70;99.90;;;;;;5094222;28;20196;-77
2021/04/14 08:31:53;;;;;;;3.20;0.97;;;9.60;99.90;;;;;;5097836;28;20220;-77
2021/04/14 08:34:25;;;;;;;3.33;0.70;;;9.30;99.90;;;;;;5082060;28;20316;-79
2021/04/14 08:36:57;;;;;;;4.00;0.83;;;9.00;99.90;;;;;;5081635;28;20658;-77
2021/04/14 08:39:27;;;;;;;3.50;0.70;;;8.90;99.90;;;;;;5082175;28;20273;-78
2021/04/14 08:42:15;;;;;;;2.03;0.70;;;8.80;99.90;;;;;;5081449;28;20557;-79
2021/04/14 08:44:43;;;;;;;3.07;1.07;;;8.70;99.90;;;;;;5082116;28;20300;-76
2021/04/14 08:47:17;;;;;;;3.97;0.80;;;8.50;99.90;;;;;;5083342;28;20219;-81
2021/04/14 08:49:45;;;;;;;2.47;0.70;;;8.40;99.90;;;;;;5082765;28;20356;-79
2021/04/14 08:52:16;;;;;;;2.03;0.70;;;8.30;99.90;;;;;;5082528;28;20267;-80
2021/04/14 08:54:43;;;;;;;4.00;0.83;;;8.30;99.90;;;;;;5083522;28;20197;-80
2021/04/14 08:57:10;;;;;;;3.30;0.80;;;8.30;99.90;;;;;;5085996;28;20209;-81
2021/04/14 08:59:38;;;;;;;1.63;0.70;;;8.30;99.90;;;;;;5083461;28;20295;-81
2021/04/14 09:02:06;;;;;;;3.37;0.70;;;8.30;99.90;;;;;;5090105;28;20218;-79
2021/04/14 09:04:34;;;;;;;1.80;0.53;;;8.30;99.90;;;;;;5084159;28;20208;-80
2021/04/14 09:07:02;;;;;;;1.90;0.57;;;8.20;99.90;;;;;;5084982;28;20222;-78
2021/04/14 09:09:32;;;;;;;3.93;0.73;;;8.20;99.90;;;;;;5102697;28;20196;-78
2021/04/14 09:12:01;;;;;;;5.43;1.00;;;8.20;99.90;;;;;;5082835;28;20995;-77
2021/04/14 09:14:30;;;;;;;4.60;0.77;;;8.20;99.90;;;;;;5082953;28;20526;-80
2021/04/14 09:17:00;;;;;;;1.67;0.70;;;8.30;99.90;;;;;;5081795;28;20242;-78
2021/04/14 09:19:31;;;;;;;2.93;0.73;;;8.30;99.90;;;;;;5081748;28;20240;-79
2021/04/14 09:22:01;;;;;;;3.43;0.57;;;8.30;99.90;;;;;;5082321;28;20207;-79
2021/04/14 09:24:47;;;;;;;1.87;0.60;;;8.40;99.90;;;;;;5082075;28;20204;-78
2021/04/14 09:27:41;;;;;;;2.30;0.50;;;8.40;99.90;;;;;;5092276;28;20208;-81
2021/04/14 09:30:18;;;;;;;2.40;0.57;;;8.40;99.90;;;;;;5107216;28;20199;-79
2021/04/14 09:32:55;;;;;;;3.03;0.87;;;8.60;99.90;;;;;;5096799;28;20231;-76
2021/04/14 09:35:37;;;;;;;1.57;0.70;;;8.70;99.90;;;;;;5096623;27;20641;-77
2021/04/14 09:38:07;;;;;;;0.40;0.40;;;9.00;99.90;;;;;;5084726;28;20284;-81
2021/04/14 09:40:36;;;;;;;1.47;0.60;;;9.30;99.90;;;;;;5084447;28;20289;-80
2021/04/14 09:43:15;;;;;;;1.67;0.60;;;9.70;99.90;;;;;;5083580;28;20276;-78
2021/04/14 09:45:55;;;;;;;0.67;0.50;;;10.20;99.90;;;;;;5083017;28;20530;-79
2021/04/14 09:48:21;;;;;;;0.93;0.50;;;10.80;99.90;;;;;;5084089;28;20205;-80
2021/04/14 09:50:48;;;;;;;2.63;0.60;;;11.10;99.90;;;;;;5084532;28;20208;-78
2021/04/14 09:53:30;;;;;;;2.73;1.00;;;11.40;99.90;;;;;;5082958;27;20228;-78
2021/04/14 09:55:59;;;;;;;1.50;0.70;;;11.60;99.90;;;;;;5083898;28;20212;-78
2021/04/14 09:58:31;;;;;;;0.60;0.50;;;11.50;99.90;;;;;;5090714;28;20214;-77
2021/04/14 10:01:10;;;;;;;1.60;0.57;;;11.40;99.90;;;;;;5104718;28;20208;-77
2021/04/14 10:03:38;;;;;;;2.40;0.60;;;11.20;99.90;;;;;;5084150;28;20201;-77
2021/04/14 10:06:09;;;;;;;1.50;0.50;;;10.70;99.90;;;;;;5085518;27;20222;-77
2021/04/14 10:08:37;;;;;;;0.47;0.43;;;10.50;99.90;;;;;;5098879;28;20211;-76
2021/04/14 10:11:04;;;;;;;1.90;0.60;;;10.20;99.90;;;;;;5095595;28;20291;-77
2021/04/14 10:13:32;;;;;;;1.90;0.70;;;9.90;99.90;;;;;;5083239;28;20244;-77
2021/04/14 10:15:59;;;;;;;2.60;0.57;;;9.80;99.90;;;;;;5083889;28;20205;-78
2021/04/14 10:18:28;;;;;;;1.13;0.50;;;9.70;99.90;;;;;;5083593;28;20236;-77
2021/04/14 10:21:10;;;;;;;1.80;0.63;;;9.60;99.90;;;;;;5082900;27;20232;-78
2021/04/14 10:23:38;;;;;;;3.17;0.90;;;9.90;99.90;;;;;;5089201;28;20200;-80
2021/04/14 10:26:09;;;;;;;1.70;0.63;;;10.30;99.90;;;;;;5085937;28;20211;-77
2021/04/14 10:28:38;;;;;;;3.70;0.70;;;10.70;99.90;;;;;;5101419;28;20268;-78
2021/04/14 10:31:08;;;;;;;3.70;0.70;;;10.80;99.90;;;;;;5099464;28;20219;-78
2021/04/14 10:33:35;;;;;;;2.67;1.00;;;10.60;99.90;;;;;;5082602;28;20231;-76
2021/04/14 10:36:11;;;;;;;3.63;0.60;;;10.40;99.90;;;;;;5083577;28;20200;-80
2021/04/14 10:38:37;;;;;;;1.17;0.67;;;9.80;99.90;;;;;;5082289;28;20204;-78
2021/04/14 10:41:16;;;;;;;1.70;0.97;;;9.50;99.90;;;;;;5082765;28;20205;-78
2021/04/14 10:43:42;;;;;;;4.27;0.80;;;9.30;99.90;;;;;;5082824;27;20204;-78
2021/04/14 10:46:13;;;;;;;2.33;0.77;;;9.20;99.90;;;;;;5082855;28;20209;-79
2021/04/14 10:48:43;;;;;;;4.70;0.80;;;9.00;99.90;;;;;;5083061;28;20266;-79
2021/04/14 10:51:12;;;;;;;3.07;0.73;;;8.90;99.90;;;;;;5083522;28;20227;-79
2021/04/14 10:53:41;;;;;;;2.60;1.10;;;8.70;99.90;;;;;;5084749;28;20240;-77
2021/04/14 10:56:19;;;;;;;5.80;1.23;;;8.50;99.90;;;;;;5080346;28;20212;-77
2021/04/14 10:58:46;;;;;;;5.00;1.47;;;8.50;99.90;;;;;;5083198;28;20211;-79
2021/04/14 11:01:15;;;;;;;3.20;1.07;;;8.40;99.90;;;;;;5084849;28;20204;-77
2021/04/14 11:03:43;;;;;;;1.87;0.80;;;8.40;99.90;;;;;;5082878;28;20519;-78
2021/04/14 11:06:11;;;;;;;3.93;0.90;;;8.40;99.90;;;;;;5085158;28;20291;-77
2021/04/14 11:08:37;;;;;;;3.50;0.70;;;8.40;99.90;;;;;;5102890;28;20256;-78
2021/04/14 11:11:04;;;;;;;2.83;0.70;;;8.30;99.90;;;;;;5103013;28;20192;-77
2021/04/14 11:13:35;;;;;;;5.03;1.00;;;8.30;99.90;;;;;;5084038;28;20615;-78
2021/04/14 11:16:02;;;;;;;3.60;0.93;;;8.30;99.90;;;;;;5082087;28;20231;-78
2021/04/14 11:18:34;;;;;;;2.77;0.73;;;8.20;99.90;;;;;;5083104;28;20236;-79
2021/04/14 11:21:07;;;;;;;3.60;0.87;;;8.10;99.90;;;;;;5082248;28;20212;-78
2021/04/14 11:23:36;;;;;;;3.23;0.90;;;8.20;99.90;;;;;;5082069;28;20746;-78
2021/04/14 11:26:08;;;;;;;2.57;0.70;;;8.20;99.90;;;;;;5082603;28;20208;-78
2021/04/14 11:28:44;;;;;;;2.73;0.60;;;8.20;99.90;;;;;;5082619;28;20204;-80
2021/04/14 11:31:12;;;;;;;4.43;1.30;;;8.10;99.90;;;;;;5082296;28;20291;-77
2021/04/14 11:33:40;;;;;;;4.07;0.80;;;8.10;99.90;;;;;;5081929;28;20232;-77
2021/04/14 11:36:20;;;;;;;2.23;0.70;;;8.00;99.90;;;;;;5082815;28;20205;-80
2021/04/14 11:38:58;;;;;;;2.67;0.90;;;8.00;99.90;;;;;;5081773;28;20208;-75
2021/04/14 11:41:28;;;;;;;2.90;1.17;;;7.90;99.90;;;;;;5082271;28;20272;-75
2021/04/14 11:43:56;;;;;;;4.73;1.10;;;7.80;99.90;;;;;;5082505;28;20197;-79
2021/04/14 11:46:32;;;;;;;4.20;0.70;;;7.70;99.90;;;;;;5097472;28;20208;-78
2021/04/14 11:49:01;;;;;;;5.03;1.13;;;7.80;99.90;;;;;;5098244;27;20215;-76
2021/04/14 11:51:32;;;;;;;3.77;1.10;;;7.90;99.90;;;;;;5094304;28;20200;-79
2021/04/14 11:54:02;;;;;;;1.87;0.80;;;8.00;99.90;;;;;;5083543;28;20224;-80
2021/04/14 11:56:54;;;;;;;2.43;0.93;;;8.10;99.90;;;;;;5085158;28;20656;-78
2021/04/14 11:59:24;;;;;;;2.57;1.20;;;8.30;99.90;;;;;;5085102;28;20219;-81
2021/04/14 12:02:00;;;;;;;2.27;0.80;;;8.50;99.90;;;;;;5084716;28;20193;-79
2021/04/14 12:04:26;;;;;;;4.67;0.90;;;8.80;99.90;;;;;;5085789;28;20295;-81
2021/04/14 12:06:53;;;;;;;6.87;0.90;;;9.10;99.90;;;;;;5090971;28;20222;-78
2021/04/14 12:09:19;;;;;;;1.40;0.57;;;9.20;99.90;;;;;;5103856;28;20203;-79
2021/04/14 12:11:56;;;;;;;0.90;0.60;;;9.40;99.90;;;;;;5102046;28;20276;-78
2021/04/14 12:14:23;;;;;;;3.27;1.23;;;9.50;99.90;;;;;;5101661;28;20184;-79
2021/04/14 12:16:49;;;;;;;2.37;0.70;;;9.50;99.90;;;;;;5085053;28;20574;-77
2021/04/14 12:19:15;;;;;;;2.00;0.90;;;9.40;99.90;;;;;;5081791;28;20241;-79
2021/04/14 12:21:42;;;;;;;3.63;1.07;;;9.40;99.90;;;;;;5082345;28;20204;-79
2021/04/14 12:24:09;;;;;;;4.07;1.10;;;9.30;99.90;;;;;;5082645;28;20223;-78
2021/04/14 12:26:35;;;;;;;4.00;0.90;;;9.20;99.90;;;;;;5081217;28;20204;-79
2021/04/14 12:29:01;;;;;;;5.03;0.83;;;9.30;99.90;;;;;;5081130;28;20506;-76
2021/04/14 12:31:31;;;;;;;2.50;0.70;;;9.60;99.90;;;;;;5080776;28;20224;-76
2021/04/14 12:33:57;;;;;;;4.17;1.07;;;10.00;99.90;;;;;;5079817;28;20323;-78
2021/04/14 12:36:24;;;;;;;3.10;0.80;;;10.20;99.90;;;;;;5080835;28;20204;-77
2021/04/14 12:38:50;;;;;;;4.33;0.80;;;10.10;99.90;;;;;;5080436;28;20607;-77
2021/04/14 12:41:17;;;;;;;3.53;1.07;;;10.00;99.90;;;;;;5089736;22;20208;-76
2021/04/14 12:43:43;;;;;;;5.83;1.50;;;9.70;99.90;;;;;;5101450;28;20276;-76
2021/04/14 12:46:09;;;;;;;3.80;1.40;;;9.50;99.90;;;;;;5088926;28;20304;-79
2021/04/14 12:48:39;;;;;;;5.10;1.20;;;9.30;99.90;;;;;;5081600;28;20200;-76
2021/04/14 12:51:16;;;;;;;6.43;1.30;;;9.10;99.90;;;;;;5082266;28;20211;-76
2021/04/14 12:53:45;;;;;;;2.80;1.00;;;9.10;99.90;;;;;;5081523;28;20204;-76
2021/04/14 12:56:23;;;;;;;4.63;0.93;;;9.00;99.90;;;;;;5099077;28;20873;-75
2021/04/14 12:58:51;;;;;;;7.33;1.23;;;8.90;99.90;;;;;;5102760;28;20842;-81
2021/04/14 13:01:19;;;;;;;4.40;1.03;;;9.00;99.90;;;;;;5102595;28;20204;-81